Time;durP1;ratioP1;P1;durP2;ratioP2;P2;SDS_P1;SDS_P2;PMS_P1;PMS_P2;Temp;Humidity;BMP_temperature;BMP_pressure;BME280_temperature;BME280_humidity;BME280_pressure;Samples;Min_cycle;Max_cycle;Signal;HPM_P1;HPM_P2
2022/05/13 00:01:52;;;;;;;0.40;0.40;;;12.90;99.90;;;;;;5034028;28;20810;-72
2022/05/13 00:04:41;;;;;;;0.40;0.40;;;12.80;99.90;;;;;;5033972;28;20849;-69
2022/05/13 00:07:29;;;;;;;0.40;0.40;;;12.70;99.90;;;;;;5033290;28;20461;-70
2022/05/13 00:10:18;;;;;;;0.40;0.40;;;12.80;99.90;;;;;;5033761;28;20210;-71
2022/05/13 00:13:08;;;;;;;0.50;0.50;;;12.70;99.90;;;;;;5033771;28;20421;-70
2022/05/13 00:15:56;;;;;;;0.50;0.50;;;12.70;99.90;;;;;;5034131;28;20466;-70
2022/05/13 00:18:44;;;;;;;0.40;0.40;;;12.60;99.90;;;;;;5033778;28;20447;-71
2022/05/13 00:21:33;;;;;;;0.50;0.50;;;12.60;99.90;;;;;;5033146;28;20445;-69
2022/05/13 00:24:21;;;;;;;0.50;0.50;;;12.50;99.90;;;;;;5034023;28;20795;-70
2022/05/13 00:27:10;;;;;;;0.50;0.50;;;12.50;99.90;;;;;;5034182;28;20587;-70
2022/05/13 00:29:58;;;;;;;0.50;0.50;;;12.50;99.90;;;;;;5033702;28;20202;-68
2022/05/13 00:32:48;;;;;;;0.50;0.50;;;12.30;99.90;;;;;;5033213;28;21092;-68
2022/05/13 00:35:37;;;;;;;0.50;0.50;;;12.20;99.90;;;;;;5033569;28;20472;-69
2022/05/13 00:38:26;;;;;;;0.40;0.40;;;12.30;99.90;;;;;;5033373;28;20526;-70
2022/05/13 00:41:14;;;;;;;0.50;0.50;;;12.30;99.90;;;;;;5033425;28;20499;-69
2022/05/13 00:44:04;;;;;;;0.40;0.40;;;12.30;99.90;;;;;;5033391;28;20425;-71
2022/05/13 00:46:52;;;;;;;0.47;0.47;;;12.30;99.90;;;;;;5033725;28;20433;-71
2022/05/13 00:49:41;;;;;;;0.40;0.40;;;12.50;99.90;;;;;;5033508;28;20421;-70
2022/05/13 00:52:30;;;;;;;0.40;0.40;;;12.30;99.90;;;;;;5032403;28;20523;-70
2022/05/13 00:55:23;;;;;;;0.50;0.50;;;12.40;99.90;;;;;;5033378;28;20432;-70
2022/05/13 00:58:15;;;;;;;0.50;0.50;;;12.40;99.90;;;;;;5033369;28;20425;-70
2022/05/13 01:01:05;;;;;;;0.47;0.47;;;12.30;99.90;;;;;;5032883;28;20940;-70
2022/05/13 01:03:53;;;;;;;0.40;0.40;;;12.30;99.90;;;;;;5033063;28;20425;-72
2022/05/13 01:06:44;;;;;;;0.50;0.50;;;12.20;99.90;;;;;;5032977;28;20452;-69
2022/05/13 01:09:36;;;;;;;0.50;0.50;;;12.20;99.90;;;;;;5033006;28;20424;-70
2022/05/13 01:12:31;;;;;;;0.50;0.50;;;12.10;99.90;;;;;;5032611;28;20896;-69
2022/05/13 01:15:23;;;;;;;0.50;0.50;;;12.00;99.90;;;;;;5033194;28;20429;-69
2022/05/13 01:18:12;;;;;;;0.50;0.50;;;12.00;99.90;;;;;;5032896;28;20421;-71
2022/05/13 01:21:05;;;;;;;0.40;0.40;;;11.90;99.90;;;;;;5032831;28;20964;-71
2022/05/13 01:23:54;;;;;;;0.50;0.50;;;11.80;99.90;;;;;;5032430;28;20433;-69
2022/05/13 01:26:42;;;;;;;0.50;0.50;;;11.80;99.90;;;;;;5032607;28;20321;-71
2022/05/13 01:29:30;;;;;;;0.50;0.50;;;11.70;99.90;;;;;;5032725;28;21071;-71
2022/05/13 01:32:19;;;;;;;0.50;0.50;;;11.70;99.90;;;;;;5031861;28;21000;-69
2022/05/13 01:35:08;;;;;;;0.50;0.50;;;11.70;99.90;;;;;;5032388;28;20805;-68
2022/05/13 01:37:56;;;;;;;0.50;0.50;;;11.50;99.90;;;;;;5032429;28;20953;-71
2022/05/13 01:40:45;;;;;;;0.40;0.40;;;11.40;99.90;;;;;;5032167;28;20925;-70
2022/05/13 01:43:34;;;;;;;0.50;0.50;;;11.40;99.90;;;;;;5033756;28;20425;-70
2022/05/13 01:46:23;;;;;;;0.50;0.50;;;11.30;99.90;;;;;;5033177;28;20476;-71
2022/05/13 01:49:11;;;;;;;0.50;0.50;;;11.30;99.90;;;;;;5031892;28;20417;-69
2022/05/13 01:51:59;;;;;;;0.50;0.50;;;11.30;99.90;;;;;;5032509;28;20531;-69
2022/05/13 01:54:47;;;;;;;0.50;0.50;;;11.30;99.90;;;;;;5051862;28;20769;-70
2022/05/13 01:57:36;;;;;;;0.50;0.50;;;11.20;99.90;;;;;;5051967;28;20428;-69
2022/05/13 02:00:26;;;;;;;0.50;0.50;;;11.20;99.90;;;;;;5051439;28;20504;-71
2022/05/13 02:06:23;;;;;;;0.50;0.50;;;11.20;99.90;;;;;;5055225;28;20435;-71
2022/05/13 02:09:11;;;;;;;0.50;0.50;;;11.10;99.90;;;;;;5054931;28;20486;-69
2022/05/13 02:12:00;;;;;;;0.40;0.40;;;11.10;99.90;;;;;;5055680;28;20463;-69
2022/05/13 02:14:49;;;;;;;0.50;0.50;;;11.00;99.90;;;;;;5055204;28;20937;-72
2022/05/13 02:17:37;;;;;;;0.50;0.50;;;11.10;99.90;;;;;;5055814;28;20438;-70
2022/05/13 02:20:26;;;;;;;0.40;0.40;;;11.00;99.90;;;;;;5055149;28;20428;-69
2022/05/13 02:23:14;;;;;;;0.50;0.50;;;10.90;99.90;;;;;;5054933;28;20412;-68
2022/05/13 02:26:04;;;;;;;0.50;0.50;;;10.90;99.90;;;;;;5055110;28;20428;-68
2022/05/13 02:28:52;;;;;;;0.50;0.50;;;10.90;99.90;;;;;;5054900;28;20420;-69
2022/05/13 02:31:41;;;;;;;0.50;0.50;;;10.80;99.90;;;;;;5054507;28;20479;-70
2022/05/13 02:34:29;;;;;;;0.50;0.50;;;10.70;99.90;;;;;;5056356;28;20490;-69
2022/05/13 02:37:18;;;;;;;0.50;0.50;;;10.70;99.90;;;;;;5056535;28;20956;-73
2022/05/13 02:40:07;;;;;;;0.50;0.50;;;10.60;99.90;;;;;;5055216;28;20420;-71
2022/05/13 02:42:56;;;;;;;0.40;0.40;;;10.60;99.90;;;;;;5055916;28;20809;-70
2022/05/13 02:45:44;;;;;;;0.50;0.50;;;10.60;99.90;;;;;;5056314;28;20948;-71
2022/05/13 02:48:33;;;;;;;0.40;0.40;;;10.50;99.90;;;;;;5053922;28;20435;-70
2022/05/13 02:51:22;;;;;;;0.50;0.50;;;10.50;99.90;;;;;;5053999;28;20436;-70
2022/05/13 02:54:10;;;;;;;0.50;0.50;;;10.50;99.90;;;;;;5054621;28;20436;-70
2022/05/13 02:56:58;;;;;;;0.47;0.47;;;10.40;99.90;;;;;;5054449;28;20424;-71
2022/05/13 02:59:46;;;;;;;0.43;0.43;;;10.40;99.90;;;;;;5054411;28;20561;-71
2022/05/13 03:02:34;;;;;;;0.50;0.50;;;10.30;99.90;;;;;;5053949;28;20454;-71
2022/05/13 03:05:24;;;;;;;0.50;0.50;;;10.30;99.90;;;;;;5054538;28;20450;-71
2022/05/13 03:08:13;;;;;;;0.40;0.40;;;10.30;99.90;;;;;;5054410;28;20435;-70
2022/05/13 03:11:02;;;;;;;0.50;0.50;;;10.20;99.90;;;;;;5054008;28;20447;-69
2022/05/13 03:13:52;;;;;;;0.40;0.40;;;10.20;99.90;;;;;;5053115;28;20987;-71
2022/05/13 03:16:40;;;;;;;0.50;0.50;;;10.20;99.90;;;;;;5054329;28;20435;-70
2022/05/13 03:19:28;;;;;;;0.40;0.40;;;10.20;99.90;;;;;;5053289;28;20432;-71
2022/05/13 03:22:18;;;;;;;0.50;0.50;;;10.20;99.90;;;;;;5053946;28;20436;-71
2022/05/13 03:25:07;;;;;;;0.50;0.50;;;10.10;99.90;;;;;;5053535;28;20427;-70
2022/05/13 03:27:55;;;;;;;0.50;0.50;;;10.10;99.90;;;;;;5052952;28;20420;-70
2022/05/13 03:30:44;;;;;;;0.50;0.50;;;10.10;99.90;;;;;;5054172;28;20458;-71
2022/05/13 03:33:33;;;;;;;0.50;0.50;;;10.10;99.90;;;;;;5052927;28;20460;-70
2022/05/13 03:36:21;;;;;;;0.50;0.50;;;10.10;99.90;;;;;;5054063;28;20492;-69
2022/05/13 03:39:10;;;;;;;0.50;0.50;;;10.10;99.90;;;;;;5053588;28;20427;-71
2022/05/13 03:41:58;;;;;;;0.40;0.40;;;10.20;99.90;;;;;;5053848;28;20447;-69
2022/05/13 03:44:46;;;;;;;0.47;0.47;;;10.20;99.90;;;;;;5054473;28;20486;-71
2022/05/13 03:47:34;;;;;;;0.50;0.50;;;10.20;99.90;;;;;;5055225;28;20466;-71
2022/05/13 03:50:22;;;;;;;0.50;0.50;;;10.20;99.90;;;;;;5053820;28;20841;-71
2022/05/13 03:53:11;;;;;;;0.50;0.50;;;10.30;99.90;;;;;;5052939;28;21015;-69
2022/05/13 03:56:00;;;;;;;0.40;0.40;;;10.30;99.90;;;;;;5053637;28;20825;-69
2022/05/13 03:58:48;;;;;;;0.50;0.50;;;10.40;99.90;;;;;;5053284;28;20447;-70
2022/05/13 04:01:36;;;;;;;0.50;0.50;;;10.50;99.90;;;;;;5052642;28;20444;-71
2022/05/13 04:04:24;;;;;;;0.43;0.43;;;10.50;99.90;;;;;;5053181;28;20416;-70
2022/05/13 04:10:18;;;;;;;0.50;0.50;;;10.70;99.90;;;;;;5053078;28;20427;-72
2022/05/13 04:16:14;;;;;;;0.50;0.50;;;10.80;99.90;;;;;;5051985;28;20467;-69
2022/05/13 04:19:03;;;;;;;0.50;0.50;;;10.80;99.90;;;;;;5052929;28;20424;-70
2022/05/13 04:21:52;;;;;;;0.50;0.50;;;10.90;99.90;;;;;;5052732;28;20448;-68
2022/05/13 04:24:40;;;;;;;0.50;0.50;;;10.90;99.90;;;;;;5052629;28;20419;-69
2022/05/13 04:27:28;;;;;;;0.50;0.50;;;11.00;99.90;;;;;;5052072;28;20464;-70
2022/05/13 04:30:18;;;;;;;0.50;0.50;;;11.10;99.90;;;;;;5052512;28;20424;-69
2022/05/13 04:33:06;;;;;;;0.40;0.40;;;11.20;99.90;;;;;;5053879;28;20502;-70
2022/05/13 04:35:54;;;;;;;0.50;0.50;;;11.30;99.90;;;;;;5052389;28;20474;-70
2022/05/13 04:38:44;;;;;;;0.50;0.50;;;11.30;99.90;;;;;;5052841;28;20451;-71
2022/05/13 04:44:39;;;;;;;0.50;0.50;;;11.50;99.90;;;;;;5052346;28;20420;-70
2022/05/13 04:50:34;;;;;;;0.50;0.50;;;11.60;99.90;;;;;;5051566;28;20416;-69
2022/05/13 04:53:25;;;;;;;0.40;0.40;;;11.70;99.90;;;;;;5051798;28;20506;-70
2022/05/13 04:56:14;;;;;;;0.50;0.50;;;11.80;99.90;;;;;;5053098;28;20959;-69
2022/05/13 04:59:02;;;;;;;0.50;0.50;;;11.80;99.90;;;;;;5051844;28;20428;-68
2022/05/13 05:01:50;;;;;;;0.50;0.50;;;11.90;99.90;;;;;;5052741;28;20440;-71
2022/05/13 05:04:40;;;;;;;0.40;0.40;;;12.00;99.90;;;;;;5052141;28;20423;-71
2022/05/13 05:07:28;;;;;;;0.43;0.43;;;12.10;99.90;;;;;;5051146;28;20421;-71
2022/05/13 05:10:18;;;;;;;0.40;0.40;;;12.20;99.90;;;;;;5052322;28;20420;-71
2022/05/13 05:13:07;;;;;;;0.40;0.40;;;12.30;99.90;;;;;;5050970;28;20460;-72
2022/05/13 05:15:56;;;;;;;0.40;0.40;;;12.40;99.90;;;;;;5051977;28;20424;-70
2022/05/13 05:18:44;;;;;;;0.50;0.50;;;12.50;99.90;;;;;;5051696;28;20428;-70
2022/05/13 05:21:34;;;;;;;0.50;0.50;;;12.50;99.90;;;;;;5052351;28;20443;-71
2022/05/13 05:24:22;;;;;;;0.40;0.40;;;12.70;99.90;;;;;;5052572;28;20431;-71
2022/05/13 05:27:11;;;;;;;0.40;0.40;;;12.80;99.90;;;;;;5051479;28;20431;-71
2022/05/13 05:29:59;;;;;;;0.50;0.50;;;12.80;99.90;;;;;;5052186;28;20432;-69
2022/05/13 05:32:47;;;;;;;0.50;0.50;;;13.00;99.90;;;;;;5051170;28;20456;-70
2022/05/13 05:35:35;;;;;;;0.50;0.50;;;13.10;99.90;;;;;;5050248;28;20482;-69
2022/05/13 05:38:25;;;;;;;0.40;0.40;;;13.20;99.90;;;;;;5051616;28;20478;-69
2022/05/13 05:41:13;;;;;;;0.40;0.40;;;13.30;99.90;;;;;;5040792;28;20543;-70
2022/05/13 05:44:01;;;;;;;0.40;0.40;;;13.30;99.90;;;;;;5032440;28;20613;-69
2022/05/13 05:46:49;;;;;;;0.40;0.40;;;13.40;99.90;;;;;;5032783;28;20483;-70
2022/05/13 05:49:37;;;;;;;0.40;0.40;;;13.60;99.90;;;;;;5035747;28;20432;-69
2022/05/13 05:52:26;;;;;;;0.40;0.40;;;13.70;99.90;;;;;;5032949;28;20449;-69
2022/05/13 05:58:21;;;;;;;0.50;0.50;;;14.00;99.90;;;;;;5045985;28;20485;-69
2022/05/13 06:01:09;;;;;;;0.50;0.50;;;14.20;99.90;;;;;;5040985;28;20216;-70
2022/05/13 06:03:57;;;;;;;0.40;0.40;;;14.30;99.90;;;;;;5041623;28;20212;-70
2022/05/13 06:06:46;;;;;;;0.50;0.50;;;14.40;99.90;;;;;;5043710;28;20210;-69
2022/05/13 06:09:34;;;;;;;0.40;0.40;;;14.60;99.90;;;;;;5041661;28;20605;-68
2022/05/13 06:12:23;;;;;;;0.50;0.50;;;14.70;99.90;;;;;;5044177;28;20225;-68
2022/05/13 06:15:12;;;;;;;0.40;0.40;;;14.80;99.90;;;;;;5040187;28;20502;-69
2022/05/13 06:18:00;;;;;;;0.40;0.40;;;15.00;99.90;;;;;;5041954;28;20201;-69
2022/05/13 06:20:49;;;;;;;2.37;1.43;;;15.00;99.90;;;;;;5040724;28;20286;-69
2022/05/13 06:23:37;;;;;;;3.90;2.27;;;15.10;99.90;;;;;;5046820;28;20197;-70
2022/05/13 06:26:26;;;;;;;0.75;0.75;;;15.20;99.90;;;;;;5040129;28;20284;-70
2022/05/13 06:29:16;;;;;;;0.70;0.70;;;15.30;99.90;;;;;;5036308;28;20205;-68
2022/05/13 06:32:05;;;;;;;0.40;0.40;;;15.50;99.90;;;;;;5043217;28;20244;-68
2022/05/13 06:34:53;;;;;;;1.53;1.23;;;15.60;99.90;;;;;;5048363;28;20220;-69
2022/05/13 06:37:41;;;;;;;1.85;1.15;;;15.80;99.90;;;;;;5053368;28;20203;-69
2022/05/13 06:40:30;;;;;;;2.42;1.63;;;16.00;99.90;;;;;;5046343;28;20332;-69
2022/05/13 06:43:24;;;;;;;1.30;1.30;;;16.20;99.90;;;;;;5035615;28;20789;-69
2022/05/13 06:46:13;;;;;;;1.25;1.15;;;16.40;99.90;;;;;;5045525;28;20572;-68
2022/05/13 06:49:07;;;;;;;1.13;1.08;;;16.50;99.90;;;;;;5036796;28;20199;-69
2022/05/13 06:51:55;;;;;;;0.60;0.60;;;16.60;99.90;;;;;;5049370;28;20222;-69
2022/05/13 06:54:44;;;;;;;0.50;0.50;;;16.70;99.90;;;;;;5044362;28;20229;-68
2022/05/13 06:57:32;;;;;;;0.40;0.40;;;16.80;99.90;;;;;;5047486;28;20198;-68
2022/05/13 07:00:21;;;;;;;0.65;0.65;;;16.90;99.90;;;;;;5048180;28;20328;-69
2022/05/13 07:03:13;;;;;;;0.40;0.40;;;17.00;99.90;;;;;;5049836;28;20221;-69
2022/05/13 07:06:01;;;;;;;1.30;0.93;;;17.10;99.90;;;;;;5045309;28;20197;-67
2022/05/13 07:08:50;;;;;;;0.60;0.60;;;17.40;99.90;;;;;;5048880;28;20252;-69
2022/05/13 07:11:39;;;;;;;1.58;1.40;;;17.40;99.90;;;;;;5048607;28;20761;-71
2022/05/13 07:14:27;;;;;;;0.40;0.40;;;17.50;99.90;;;;;;5051318;28;20209;-70
2022/05/13 07:17:15;;;;;;;5.35;2.72;;;17.70;99.90;;;;;;5041910;28;20227;-68
2022/05/13 07:20:06;;;;;;;2.40;1.40;;;17.90;99.90;;;;;;5042483;28;20202;-69
2022/05/13 07:22:54;;;;;;;0.93;0.93;;;18.00;99.90;;;;;;5043596;28;20221;-72
2022/05/13 07:25:42;;;;;;;1.70;1.60;;;18.10;99.90;;;;;;5041036;28;20279;-72
2022/05/13 07:28:30;;;;;;;1.45;1.35;;;18.40;99.90;;;;;;5044107;28;20206;-68
2022/05/13 07:31:19;;;;;;;1.40;1.30;;;18.60;99.90;;;;;;5042342;28;20303;-68
2022/05/13 07:34:08;;;;;;;2.35;1.50;;;18.70;99.90;;;;;;5056690;28;20306;-69
2022/05/13 07:36:57;;;;;;;1.55;1.33;;;18.50;99.90;;;;;;5046079;28;20197;-70
2022/05/13 07:42:51;;;;;;;1.02;0.98;;;18.60;99.90;;;;;;5044867;28;20216;-70
2022/05/13 07:45:39;;;;;;;2.70;2.47;;;18.50;99.90;;;;;;5046250;28;20194;-69
2022/05/13 07:48:28;;;;;;;1.63;1.42;;;18.10;99.90;;;;;;5048156;28;20216;-68
2022/05/13 07:51:16;;;;;;;2.33;1.80;;;17.60;99.90;;;;;;5050287;28;20697;-71
2022/05/13 07:54:05;;;;;;;1.48;1.35;;;17.40;99.90;;;;;;5044075;28;20579;-68
2022/05/13 07:56:54;;;;;;;0.57;0.57;;;17.30;99.90;;;;;;5044427;28;20218;-69
2022/05/13 08:02:48;;;;;;;0.60;0.60;;;17.20;99.90;;;;;;5043138;28;20303;-69
2022/05/13 08:05:40;;;;;;;1.05;0.95;;;17.00;99.90;;;;;;5048440;28;20213;-69
2022/05/13 08:08:31;;;;;;;1.23;1.13;;;17.00;99.90;;;;;;5040513;28;20194;-68
2022/05/13 08:11:20;;;;;;;0.70;0.70;;;16.90;99.90;;;;;;5049089;28;20213;-68
2022/05/13 08:14:08;;;;;;;0.60;0.60;;;17.00;99.90;;;;;;5049569;28;20224;-67
2022/05/13 08:16:56;;;;;;;0.50;0.50;;;17.20;99.90;;;;;;5041484;28;20221;-68
2022/05/13 08:19:45;;;;;;;0.47;0.47;;;17.30;99.90;;;;;;5042755;28;20296;-70
2022/05/13 08:22:33;;;;;;;2.03;1.85;;;17.30;99.90;;;;;;5041347;28;20698;-70
2022/05/13 08:25:21;;;;;;;0.40;0.40;;;17.40;99.90;;;;;;5051226;28;20190;-68
2022/05/13 08:28:11;;;;;;;10.13;1.85;;;17.50;99.90;;;;;;5043516;28;20201;-70
2022/05/13 08:30:59;;;;;;;2.17;1.98;;;17.40;99.90;;;;;;5041192;28;20306;-69
2022/05/13 08:33:48;;;;;;;0.50;0.50;;;17.20;99.90;;;;;;5046687;28;20206;-69
2022/05/13 08:36:36;;;;;;;1.85;1.85;;;17.20;99.90;;;;;;5039793;28;20298;-68
2022/05/13 08:39:24;;;;;;;0.88;0.88;;;17.20;99.90;;;;;;5042712;28;20243;-68
2022/05/13 08:42:38;;;;;;;1.40;1.33;;;17.20;99.90;;;;;;5040711;28;20308;-69
2022/05/13 08:45:28;;;;;;;1.48;0.90;;;17.10;99.90;;;;;;5039474;28;20205;-68
2022/05/13 08:48:20;;;;;;;0.75;0.75;;;17.00;99.90;;;;;;5041843;28;20583;-72
2022/05/13 08:51:14;;;;;;;1.00;0.68;;;17.10;99.90;;;;;;5041437;28;20248;-70
2022/05/13 08:54:13;;;;;;;0.40;0.40;;;17.50;99.90;;;;;;5048216;28;20200;-70
2022/05/13 08:57:09;;;;;;;0.40;0.40;;;17.80;99.90;;;;;;5044373;28;20198;-71
2022/05/13 09:00:01;;;;;;;1.63;1.15;;;18.10;99.90;;;;;;5051374;28;20208;-72
2022/05/13 09:03:04;;;;;;;0.40;0.40;;;18.10;99.90;;;;;;5041441;28;20228;-69
2022/05/13 09:05:56;;;;;;;0.40;0.40;;;18.30;99.90;;;;;;5035416;28;20194;-72
2022/05/13 09:08:44;;;;;;;0.88;0.88;;;18.40;99.90;;;;;;5043428;28;20206;-71
2022/05/13 09:11:37;;;;;;;0.50;0.50;;;18.40;99.90;;;;;;5041143;28;20220;-71
2022/05/13 09:14:31;;;;;;;1.13;1.13;;;18.60;99.90;;;;;;5052907;28;20288;-71
2022/05/13 09:17:33;;;;;;;0.40;0.40;;;18.70;99.90;;;;;;5043544;28;20217;-70
2022/05/13 09:20:25;;;;;;;3.60;1.73;;;18.70;99.90;;;;;;5042661;28;20208;-68
2022/05/13 09:23:14;;;;;;;17.67;1.50;;;18.90;99.90;;;;;;5045508;28;20220;-70
2022/05/13 09:26:09;;;;;;;0.40;0.40;;;19.10;99.90;;;;;;5031080;28;20198;-70
2022/05/13 09:29:08;;;;;;;4.85;0.90;;;19.20;99.90;;;;;;5032001;28;20209;-71
2022/05/13 09:32:07;;;;;;;0.40;0.40;;;19.10;99.90;;;;;;5030703;28;20236;-69
2022/05/13 09:35:05;;;;;;;1.20;1.10;;;19.00;99.90;;;;;;5030710;28;20305;-71
2022/05/13 09:37:55;;;;;;;1.88;1.13;;;19.30;99.90;;;;;;5032123;28;20202;-68
2022/05/13 09:40:57;;;;;;;1.20;1.08;;;19.00;99.90;;;;;;5031908;28;20206;-70
2022/05/13 09:43:53;;;;;;;0.63;0.63;;;18.80;99.90;;;;;;5032491;28;20748;-70
2022/05/13 09:46:43;;;;;;;0.50;0.50;;;19.10;99.90;;;;;;5030538;28;20631;-70
2022/05/13 09:49:36;;;;;;;5.75;2.25;;;19.30;99.90;;;;;;5032220;28;20201;-72
2022/05/13 09:52:29;;;;;;;0.50;0.50;;;19.40;99.90;;;;;;5031304;28;20691;-71
2022/05/13 09:55:28;;;;;;;2.25;2.15;;;19.40;99.90;;;;;;5031316;28;20236;-72
2022/05/13 09:58:18;;;;;;;0.50;0.50;;;19.70;99.90;;;;;;5041475;28;20205;-73
2022/05/13 10:01:13;;;;;;;1.38;1.27;;;19.90;99.90;;;;;;5044674;28;20279;-73
2022/05/13 10:04:08;;;;;;;0.93;0.75;;;20.00;99.90;;;;;;5053246;28;20197;-70
2022/05/13 10:07:04;;;;;;;1.13;0.60;;;19.90;99.90;;;;;;5069354;28;20677;-74
2022/05/13 10:16:18;;;;;;;1.95;1.30;;;20.40;99.70;;;;;;5035990;28;20720;-70
2022/05/13 10:19:11;;;;;;;2.78;1.00;;;20.60;98.40;;;;;;5049877;28;20201;-72
2022/05/13 10:22:06;;;;;;;0.47;0.47;;;20.90;97.50;;;;;;5050564;28;20741;-70
2022/05/13 10:25:00;;;;;;;0.50;0.50;;;20.70;97.40;;;;;;5050654;28;20212;-70
2022/05/13 10:27:53;;;;;;;0.85;0.85;;;20.70;97.60;;;;;;5054911;28;20271;-70
2022/05/13 10:30:48;;;;;;;0.70;0.70;;;20.80;95.20;;;;;;5056224;28;20224;-70
2022/05/13 10:33:42;;;;;;;0.50;0.50;;;20.80;95.50;;;;;;5055892;28;20342;-70
2022/05/13 10:36:36;;;;;;;0.80;0.80;;;20.60;95.70;;;;;;5054596;28;20217;-72
2022/05/13 10:39:41;;;;;;;0.70;0.70;;;20.60;95.00;;;;;;5056145;28;20205;-73
2022/05/13 10:42:34;;;;;;;2.78;1.15;;;20.60;93.80;;;;;;5095868;22;20232;-68
2022/05/13 10:45:25;;;;;;;0.60;0.60;;;20.60;94.40;;;;;;5076746;28;20197;-68
2022/05/13 10:48:26;;;;;;;0.75;0.40;;;20.50;94.00;;;;;;5074181;28;20200;-68
2022/05/13 10:51:19;;;;;;;2.40;1.00;;;20.50;92.30;;;;;;5061791;28;20262;-68
2022/05/13 10:54:18;;;;;;;0.40;0.40;;;20.20;92.00;;;;;;5057122;28;20201;-68
2022/05/13 10:57:15;;;;;;;1.40;0.98;;;20.00;92.70;;;;;;5057956;28;20236;-69
2022/05/13 11:00:12;;;;;;;0.40;0.40;;;20.40;92.20;;;;;;5059239;28;20205;-68
2022/05/13 11:03:25;;;;;;;1.98;0.77;;;20.70;92.10;;;;;;5057814;28;20206;-68
2022/05/13 11:06:42;;;;;;;0.40;0.40;;;20.60;91.20;;;;;;5059139;28;20222;-68
2022/05/13 11:09:42;;;;;;;1.40;0.93;;;20.20;91.50;;;;;;5059073;28;20193;-67
2022/05/13 11:12:34;;;;;;;0.68;0.68;;;20.30;90.50;;;;;;5056953;28;20251;-67
2022/05/13 11:15:29;;;;;;;1.58;1.48;;;20.00;90.00;;;;;;5059297;28;20197;-68
2022/05/13 11:18:37;;;;;;;1.73;1.63;;;20.10;90.00;;;;;;5058637;28;20194;-68
2022/05/13 11:21:34;;;;;;;1.65;1.55;;;20.10;89.40;;;;;;5057662;28;20232;-68
2022/05/13 11:28:01;;;;;;;1.40;1.30;;;20.00;88.80;;;;;;5057864;28;20247;-67
2022/05/13 11:31:00;;;;;;;1.60;1.50;;;19.70;89.40;;;;;;5057836;28;20697;-67
2022/05/13 11:33:58;;;;;;;0.40;0.40;;;19.40;90.20;;;;;;5058044;28;20311;-67
2022/05/13 11:36:53;;;;;;;0.40;0.40;;;19.40;90.50;;;;;;5056425;28;20213;-67
2022/05/13 11:39:51;;;;;;;0.40;0.40;;;19.40;90.30;;;;;;5058046;28;20605;-67
2022/05/13 11:46:15;;;;;;;0.52;0.52;;;19.80;90.30;;;;;;5057048;28;20201;-68
2022/05/13 11:49:11;;;;;;;0.88;0.88;;;20.40;91.10;;;;;;5065853;28;20235;-68
2022/05/13 11:52:28;;;;;;;1.45;1.23;;;21.10;90.00;;;;;;5076754;28;20224;-68
2022/05/13 11:55:21;;;;;;;0.60;0.40;;;20.50;89.10;;;;;;5087487;28;20219;-68
2022/05/13 11:58:30;;;;;;;0.60;0.50;;;19.90;90.10;;;;;;5097255;28;20207;-67
2022/05/13 12:01:53;;;;;;;1.58;1.10;;;19.60;90.90;;;;;;5097091;28;20227;-67
2022/05/13 12:05:09;;;;;;;1.15;1.05;;;19.50;90.80;;;;;;5104991;28;20695;-68
2022/05/13 12:08:07;;;;;;;1.05;0.75;;;19.80;90.80;;;;;;5092247;28;20201;-68
2022/05/13 12:11:19;;;;;;;3.33;1.75;;;20.20;90.60;;;;;;5083483;28;20299;-68
2022/05/13 12:14:19;;;;;;;2.70;1.58;;;20.40;90.60;;;;;;5077296;28;20515;-68
2022/05/13 12:17:12;;;;;;;0.40;0.40;;;20.90;89.60;;;;;;5082278;28;20221;-68
2022/05/13 12:20:10;;;;;;;2.90;1.00;;;21.00;89.20;;;;;;5084795;28;20232;-68
2022/05/13 12:23:06;;;;;;;1.42;1.05;;;20.50;88.10;;;;;;5096573;28;20207;-67
2022/05/13 12:25:57;;;;;;;1.30;0.95;;;19.90;86.80;;;;;;5097528;28;20200;-68
2022/05/13 12:29:02;;;;;;;0.40;0.40;;;19.60;87.40;;;;;;5097381;28;20206;-67
2022/05/13 12:32:20;;;;;;;0.77;0.77;;;19.40;88.40;;;;;;5096089;28;20219;-68
2022/05/13 12:38:22;;;;;;;4.47;2.05;;;19.40;88.10;;;;;;5056794;28;20205;-68
2022/05/13 12:41:18;;;;;;;1.92;1.27;;;19.30;88.40;;;;;;5053766;28;20243;-69
2022/05/13 12:44:10;;;;;;;1.75;0.90;;;19.20;87.20;;;;;;5070925;28;20208;-67
2022/05/13 12:47:18;;;;;;;0.88;0.88;;;19.00;87.50;;;;;;5055905;28;20204;-67
2022/05/13 12:50:29;;;;;;;0.40;0.40;;;18.90;88.10;;;;;;5090255;28;20261;-68
2022/05/13 12:53:40;;;;;;;0.95;0.95;;;18.90;89.90;;;;;;5094339;28;20199;-67
2022/05/13 12:56:34;;;;;;;0.40;0.40;;;19.10;90.00;;;;;;5094741;28;20731;-67
2022/05/13 12:59:26;;;;;;;1.10;1.00;;;19.40;90.20;;;;;;5095808;28;20192;-67
2022/05/13 13:02:14;;;;;;;0.40;0.40;;;19.40;90.00;;;;;;5080988;28;20221;-68
2022/05/13 13:05:08;;;;;;;0.65;0.65;;;19.60;90.40;;;;;;5077261;28;20621;-67
2022/05/13 13:08:11;;;;;;;0.60;0.60;;;19.50;90.50;;;;;;5076493;28;20197;-68
2022/05/13 13:11:04;;;;;;;1.33;1.23;;;19.40;90.50;;;;;;5075188;28;20227;-68
2022/05/13 13:13:59;;;;;;;0.60;0.60;;;18.90;91.00;;;;;;5074803;28;20203;-68
2022/05/13 13:16:57;;;;;;;0.80;0.70;;;18.70;91.70;;;;;;5074859;28;20223;-69
2022/05/13 13:19:48;;;;;;;2.85;1.60;;;18.50;91.80;;;;;;5075114;28;20200;-68
2022/05/13 13:22:41;;;;;;;1.02;0.70;;;18.40;92.30;;;;;;5078212;28;20224;-67
2022/05/13 13:25:34;;;;;;;1.30;1.20;;;18.30;92.50;;;;;;5076439;28;20661;-67
2022/05/13 13:28:26;;;;;;;0.52;0.52;;;18.20;92.70;;;;;;5096927;28;20211;-68
2022/05/13 13:31:22;;;;;;;0.70;0.70;;;18.20;92.90;;;;;;5109749;28;20224;-68
2022/05/13 13:34:24;;;;;;;0.50;0.50;;;18.30;93.30;;;;;;5108451;28;20200;-68
2022/05/13 13:37:14;;;;;;;1.38;1.30;;;18.60;93.40;;;;;;5114479;28;20227;-68
2022/05/13 13:40:17;;;;;;;0.90;0.90;;;18.90;93.00;;;;;;5098777;28;20718;-68
2022/05/13 13:43:15;;;;;;;0.70;0.60;;;19.20;93.20;;;;;;5092668;28;20684;-67
2022/05/13 13:46:08;;;;;;;0.43;0.43;;;19.80;92.80;;;;;;5092149;28;20703;-68
2022/05/13 13:49:00;;;;;;;0.52;0.52;;;22.10;90.90;;;;;;5091938;28;20201;-68
2022/05/13 13:51:50;;;;;;;1.80;0.90;;;25.00;86.10;;;;;;5089992;28;20221;-68
2022/05/13 13:54:42;;;;;;;0.52;0.52;;;26.00;78.20;;;;;;5081719;28;20203;-68
2022/05/13 13:57:53;;;;;;;0.47;0.47;;;26.40;76.20;;;;;;5074887;28;20212;-68
2022/05/13 14:00:45;;;;;;;0.68;0.68;;;25.00;74.90;;;;;;5072828;28;20221;-68
2022/05/13 14:03:33;;;;;;;0.65;0.65;;;23.50;75.60;;;;;;5074564;28;20208;-68
2022/05/13 14:06:24;;;;;;;0.40;0.40;;;22.70;76.70;;;;;;5074433;28;20211;-68
2022/05/13 14:09:18;;;;;;;0.50;0.50;;;22.10;78.70;;;;;;5074220;28;20620;-68
2022/05/13 14:12:12;;;;;;;0.40;0.40;;;22.60;78.90;;;;;;5073679;28;20220;-68
2022/05/13 14:15:21;;;;;;;0.60;0.60;;;23.50;78.70;;;;;;5075651;28;20306;-68
2022/05/13 14:18:15;;;;;;;1.30;0.70;;;24.90;73.90;;;;;;5093550;28;20216;-68
2022/05/13 14:21:11;;;;;;;0.55;0.55;;;25.00;71.00;;;;;;5093013;28;20220;-68
2022/05/13 14:24:01;;;;;;;0.40;0.40;;;23.90;72.10;;;;;;5094613;28;20207;-68
2022/05/13 14:26:52;;;;;;;0.40;0.40;;;22.70;74.00;;;;;;5094412;28;20204;-68
2022/05/13 14:29:41;;;;;;;1.30;1.30;;;21.90;76.30;;;;;;5095062;28;20200;-68
2022/05/13 14:32:35;;;;;;;0.70;0.65;;;21.50;77.70;;;;;;5094287;28;20227;-68
2022/05/13 14:35:29;;;;;;;0.40;0.40;;;21.10;78.80;;;;;;5094665;28;20204;-68
2022/05/13 14:41:47;;;;;;;0.60;0.40;;;21.00;80.20;;;;;;5066364;28;20660;-68
2022/05/13 14:44:39;;;;;;;5.45;1.50;;;21.00;82.30;;;;;;5071010;28;20212;-68
2022/05/13 14:47:33;;;;;;;0.90;0.90;;;21.20;82.10;;;;;;5080226;28;20193;-68
2022/05/13 14:50:34;;;;;;;0.40;0.40;;;21.90;79.80;;;;;;5093598;28;20200;-68
2022/05/13 14:53:22;;;;;;;0.60;0.60;;;22.00;79.50;;;;;;5094778;28;20550;-68
2022/05/13 14:56:14;;;;;;;1.98;0.90;;;21.80;77.50;;;;;;5094827;28;20618;-68
2022/05/13 14:59:04;;;;;;;1.77;0.70;;;21.80;77.80;;;;;;5092820;28;20224;-68
2022/05/13 15:01:52;;;;;;;1.30;1.20;;;22.10;78.20;;;;;;5073948;28;20479;-68
2022/05/13 15:04:53;;;;;;;0.50;0.50;;;21.80;77.90;;;;;;5073521;28;20204;-68
2022/05/13 15:07:43;;;;;;;0.50;0.47;;;21.10;78.90;;;;;;5074008;28;20684;-68
2022/05/13 15:10:31;;;;;;;0.60;0.50;;;20.30;81.20;;;;;;5075702;28;20197;-68
2022/05/13 15:13:22;;;;;;;0.40;0.40;;;20.10;81.10;;;;;;5077337;28;20204;-68
2022/05/13 15:16:12;;;;;;;5.45;0.85;;;20.20;81.50;;;;;;5077045;28;20196;-67
2022/05/13 15:19:01;;;;;;;1.30;0.70;;;20.10;79.80;;;;;;5077391;28;20227;-67
2022/05/13 15:21:49;;;;;;;0.55;0.55;;;21.30;79.00;;;;;;5077131;28;20246;-68
2022/05/13 15:24:41;;;;;;;0.90;0.90;;;21.60;77.90;;;;;;5078466;28;20270;-68
2022/05/13 15:27:30;;;;;;;2.25;0.90;;;20.80;77.70;;;;;;5077297;28;20262;-67
2022/05/13 15:30:19;;;;;;;0.50;0.50;;;20.10;79.90;;;;;;5076888;28;20211;-68
2022/05/13 15:33:07;;;;;;;1.27;0.80;;;19.60;81.20;;;;;;5076042;28;20209;-67
2022/05/13 15:35:55;;;;;;;0.50;0.50;;;19.50;82.30;;;;;;5079146;28;20192;-68
2022/05/13 15:38:43;;;;;;;1.45;1.15;;;19.20;83.40;;;;;;5097390;28;20637;-67
2022/05/13 15:41:33;;;;;;;0.50;0.50;;;18.80;84.50;;;;;;5095828;28;20723;-67